Due to severe server failure at the provider, not all demo sites are operational. Will take some days to rebuilt everything.

Demonstration site - Click on the  for more information

This is an optional block. Switch it on/off in your settings-file: $SITE['bannerTop'] = false; or $SITE['bannerBottom'] = false;

You can display ads, any other important text or photo’s using text / html or PHP code.

You can place one or more at the top and or bottom and it can all be different for content / size .



Visit our other weather sites:

Template documentation
and downloads

And another site



Nearby METAR Reports

   
EBAW - Antwerp
Updated: 23-08-2019 22:20
Clear  
Clear  
   Wind: NE 7.4 km/h
Wind: NE 7.4 km/h
Temperature: 20°C
Dew Point: 13°C
Humidity: 64%
Barometer: 1023 hPa
Visibility: More than 10 km
Cloud details: Clear ft
EBAW 232020Z 05004KT CAVOK 20/13 Q1023 NOSIG
EBLG - Liège
Updated: 23-08-2019 22:20
Clear  
Clear  
   Wind: ENE 13 km/h
Wind: ENE 13 km/h
Temperature: 20°C
Dew Point: 12°C
Humidity: 60%
Barometer: 1023 hPa
Visibility: More than 10 km
Cloud details: Clear ft
EBLG 232020Z 06007KT CAVOK 20/12 Q1023 NOSIG
EBCV - Mons/Bergen
Updated: 23-08-2019 22:25
Clear  
Clear  
   Wind: varies 1.9 km/h
Wind: varies 1.9 km/h
Temperature: 19°C
Dew Point: 13°C
Humidity: 68%
Barometer: 1022 hPa
Clouds: Clear
Visibility: More than 10 km
Cloud details: Clear ft
EBCV 232025Z AUTO VRB01KT 9999 NCD 19/13 Q1022 BLU
EHBK - Maastricht
Updated: 23-08-2019 22:25
Partly Cloudy  
Partly Cloudy  
   Wind: ENE 14.8 km/h
Wind: ENE 14.8 km/h
Temperature: 20°C
Dew Point: 13°C
Humidity: 64%
Barometer: 1022 hPa
Clouds: Partly Cloudy
Visibility: More than 10 km
Cloud details: Partly Cloudy ft
EHBK 232025Z AUTO 06008KT 9999 NSC 20/13 Q1022 NOSIG
ELLX - Luxemburg
Updated: 23-08-2019 22:20
Clear  
Clear  
   Wind: ENE 13 km/h
Wind: ENE 13 km/h
Temperature: 20°C
Dew Point: 9°C
Humidity: 49%
Barometer: 1023 hPa
Visibility: More than 10 km
Cloud details: Clear ft
ELLX 232020Z 06007KT CAVOK 20/09 Q1023 NOSIG
EBOS - Oostende
Updated: 23-08-2019 22:20
Clear  
Clear  
   Wind: ENE 13 km/h
Wind: ENE 13 km/h
Temperature: 19°C
Dew Point: 14°C
Humidity: 73%
Barometer: 1023 hPa
Visibility: More than 10 km
Cloud details: Clear ft
EBOS 232020Z 07007KT CAVOK 19/14 Q1023 NOSIG

Script developed by  Saratoga-weather.org Adapted for the template by  Weerstation Leuven

You find our weather info also at:

FRWN

Equipment we use:

Provider
Robohost

Robohost

This is an optional block. Switch it on/off in your settings-file: $SITE['bannerTop'] = false; or $SITE['bannerBottom'] = false;

You can display ads, any other important text or photo’s using text / html or PHP code.

You can place one or more at the top and or bottom and it can all be different for content / size .